SBUG/URG METAR and TAF weather

Enter ICAO airport designator
Station Type Date Time Source
SBUG METAR 2021/09/07 17:00 UTC NOAA

SBUG 071700Z 09025KT 9999 SCT013 SCT033 OVC100 21/18 Q1005 RETS


Station Type Date Time Source
SBUG Decoded METAR 2021/09/07 17:00 UTC NOAA

Uruguaiana Aeroporto , Brazil (SBUG) 29-47S 057-02W 74M
Sep 07, 2021 - 01:00 PM EDT / 2021.09.07 1700 UTC
Wind: from the E (090 degrees) at 29 MPH (25 KT):0
Visibility: greater than 7 mile(s):0
Sky conditions: overcast
Temperature: 69 F (21 C)
Dew Point: 64 F (18 C)
Relative Humidity: 82%
Pressure (altimeter): 29.68 in. Hg (1005 hPa)
ob: SBUG 071700Z 09025KT 9999 SCT013 SCT033 OVC100 21/18 Q1005 RETS
cycle: 17

Station Type Date Time Source
SBUG TAF 2021/09/16 18:03 UTC NOAA

TAF SBUG 161500Z 1618/1706 10009KT CAVOK TX23/1618Z TN13/1705Z
BECMG 1618/1620 16009KT
BECMG 1621/1623 09005KT
RMK PDL

Example: see airport list